sensor_id;sensor_type;location;lat;lon;timestamp;P1;durP1;ratioP1;P2;durP2;ratioP2
4450;SDS011;2238;50.180;9.230;2023-02-15T00:02:26;22.53;;;12.27;;
4450;SDS011;2238;50.180;9.230;2023-02-15T00:05:27;21.07;;;12.47;;
4450;SDS011;2238;50.180;9.230;2023-02-15T00:08:31;21.73;;;12.53;;
4450;SDS011;2238;50.180;9.230;2023-02-15T00:11:32;23.30;;;13.50;;
4450;SDS011;2238;50.180;9.230;2023-02-15T00:14:39;20.63;;;11.63;;
4450;SDS011;2238;50.180;9.230;2023-02-15T00:17:40;22.50;;;12.37;;
4450;SDS011;2238;50.180;9.230;2023-02-15T00:20:41;26.57;;;14.50;;
4450;SDS011;2238;50.180;9.230;2023-02-15T00:23:42;22.90;;;12.43;;
4450;SDS011;2238;50.180;9.230;2023-02-15T00:26:43;23.77;;;12.60;;
4450;SDS011;2238;50.180;9.230;2023-02-15T00:29:44;21.13;;;10.70;;
4450;SDS011;2238;50.180;9.230;2023-02-15T00:32:47;20.00;;;11.73;;
4450;SDS011;2238;50.180;9.230;2023-02-15T00:35:55;19.83;;;12.20;;
4450;SDS011;2238;50.180;9.230;2023-02-15T00:38:56;21.23;;;11.30;;
4450;SDS011;2238;50.180;9.230;2023-02-15T00:41:57;21.00;;;12.23;;
4450;SDS011;2238;50.180;9.230;2023-02-15T00:44:58;25.77;;;12.60;;
4450;SDS011;2238;50.180;9.230;2023-02-15T00:47:59;26.33;;;12.83;;
4450;SDS011;2238;50.180;9.230;2023-02-15T00:51:00;21.40;;;11.00;;
4450;SDS011;2238;50.180;9.230;2023-02-15T00:54:01;23.53;;;12.40;;
4450;SDS011;2238;50.180;9.230;2023-02-15T00:57:02;19.87;;;11.47;;
4450;SDS011;2238;50.180;9.230;2023-02-15T01:00:03;19.30;;;11.10;;
4450;SDS011;2238;50.180;9.230;2023-02-15T01:03:04;20.43;;;9.97;;
4450;SDS011;2238;50.180;9.230;2023-02-15T01:06:05;16.73;;;10.00;;
4450;SDS011;2238;50.180;9.230;2023-02-15T01:09:06;18.77;;;9.80;;
4450;SDS011;2238;50.180;9.230;2023-02-15T01:12:07;20.10;;;10.30;;
4450;SDS011;2238;50.180;9.230;2023-02-15T01:15:08;20.57;;;10.33;;
4450;SDS011;2238;50.180;9.230;2023-02-15T01:18:10;17.90;;;11.17;;
4450;SDS011;2238;50.180;9.230;2023-02-15T01:21:12;23.10;;;11.23;;
4450;SDS011;2238;50.180;9.230;2023-02-15T01:24:14;21.63;;;10.63;;
4450;SDS011;2238;50.180;9.230;2023-02-15T01:27:15;20.90;;;10.90;;
4450;SDS011;2238;50.180;9.230;2023-02-15T01:30:16;17.00;;;10.60;;
4450;SDS011;2238;50.180;9.230;2023-02-15T01:33:17;15.40;;;9.43;;
4450;SDS011;2238;50.180;9.230;2023-02-15T01:36:18;18.47;;;10.10;;
4450;SDS011;2238;50.180;9.230;2023-02-15T01:39:19;19.20;;;11.23;;
4450;SDS011;2238;50.180;9.230;2023-02-15T01:42:21;19.30;;;9.70;;
4450;SDS011;2238;50.180;9.230;2023-02-15T01:48:24;22.40;;;11.13;;
4450;SDS011;2238;50.180;9.230;2023-02-15T01:51:27;23.93;;;11.37;;
4450;SDS011;2238;50.180;9.230;2023-02-15T01:54:31;19.10;;;9.90;;
4450;SDS011;2238;50.180;9.230;2023-02-15T01:57:33;23.20;;;11.77;;
4450;SDS011;2238;50.180;9.230;2023-02-15T02:00:35;16.70;;;9.63;;
4450;SDS011;2238;50.180;9.230;2023-02-15T02:03:38;21.43;;;9.87;;
4450;SDS011;2238;50.180;9.230;2023-02-15T02:06:40;19.20;;;11.23;;
4450;SDS011;2238;50.180;9.230;2023-02-15T02:09:41;20.00;;;10.33;;
4450;SDS011;2238;50.180;9.230;2023-02-15T02:12:44;16.87;;;9.47;;
4450;SDS011;2238;50.180;9.230;2023-02-15T02:42:41;17.30;;;10.00;;
4450;SDS011;2238;50.180;9.230;2023-02-15T02:45:55;20.00;;;11.03;;
4450;SDS011;2238;50.180;9.230;2023-02-15T02:49:00;17.20;;;9.40;;
4450;SDS011;2238;50.180;9.230;2023-02-15T02:52:03;15.93;;;10.03;;
4450;SDS011;2238;50.180;9.230;2023-02-15T02:55:08;17.63;;;10.30;;
4450;SDS011;2238;50.180;9.230;2023-02-15T03:01:32;20.23;;;9.60;;
4450;SDS011;2238;50.180;9.230;2023-02-15T03:04:37;16.53;;;9.57;;
4450;SDS011;2238;50.180;9.230;2023-02-15T03:07:42;20.60;;;9.90;;
4450;SDS011;2238;50.180;9.230;2023-02-15T03:10:47;19.60;;;9.77;;
4450;SDS011;2238;50.180;9.230;2023-02-15T03:13:51;16.37;;;9.83;;
4450;SDS011;2238;50.180;9.230;2023-02-15T03:16:52;17.10;;;10.77;;
4450;SDS011;2238;50.180;9.230;2023-02-15T03:19:54;18.93;;;10.40;;
4450;SDS011;2238;50.180;9.230;2023-02-15T03:22:59;14.67;;;9.50;;
4450;SDS011;2238;50.180;9.230;2023-02-15T03:26:04;18.07;;;9.30;;
4450;SDS011;2238;50.180;9.230;2023-02-15T03:29:06;17.83;;;11.33;;
4450;SDS011;2238;50.180;9.230;2023-02-15T03:32:08;24.17;;;11.60;;
4450;SDS011;2238;50.180;9.230;2023-02-15T03:35:11;19.70;;;9.73;;
4450;SDS011;2238;50.180;9.230;2023-02-15T03:38:13;18.83;;;9.87;;
4450;SDS011;2238;50.180;9.230;2023-02-15T03:41:19;19.07;;;10.33;;
4450;SDS011;2238;50.180;9.230;2023-02-15T03:44:29;21.07;;;11.53;;
4450;SDS011;2238;50.180;9.230;2023-02-15T03:47:32;17.63;;;10.70;;
4450;SDS011;2238;50.180;9.230;2023-02-15T03:50:41;21.77;;;10.50;;
4450;SDS011;2238;50.180;9.230;2023-02-15T03:57:19;21.47;;;11.57;;
4450;SDS011;2238;50.180;9.230;2023-02-15T04:00:41;19.20;;;11.27;;
4450;SDS011;2238;50.180;9.230;2023-02-15T04:04:22;17.47;;;10.03;;
4450;SDS011;2238;50.180;9.230;2023-02-15T04:07:33;22.27;;;11.73;;
4450;SDS011;2238;50.180;9.230;2023-02-15T04:10:35;15.70;;;9.40;;
4450;SDS011;2238;50.180;9.230;2023-02-15T04:13:55;20.50;;;10.90;;
4450;SDS011;2238;50.180;9.230;2023-02-15T04:16:56;21.77;;;10.80;;
4450;SDS011;2238;50.180;9.230;2023-02-15T04:19:57;20.77;;;11.30;;
4450;SDS011;2238;50.180;9.230;2023-02-15T04:23:17;19.27;;;10.47;;
4450;SDS011;2238;50.180;9.230;2023-02-15T04:26:37;18.03;;;10.47;;
4450;SDS011;2238;50.180;9.230;2023-02-15T04:29:38;21.13;;;10.00;;
4450;SDS011;2238;50.180;9.230;2023-02-15T04:32:38;19.57;;;10.57;;
4450;SDS011;2238;50.180;9.230;2023-02-15T04:35:39;16.87;;;10.10;;
4450;SDS011;2238;50.180;9.230;2023-02-15T04:38:40;19.63;;;10.50;;
4450;SDS011;2238;50.180;9.230;2023-02-15T04:41:41;15.43;;;9.17;;
4450;SDS011;2238;50.180;9.230;2023-02-15T04:44:42;22.70;;;10.20;;
4450;SDS011;2238;50.180;9.230;2023-02-15T04:47:43;17.27;;;9.67;;
4450;SDS011;2238;50.180;9.230;2023-02-15T04:50:44;15.73;;;9.90;;
4450;SDS011;2238;50.180;9.230;2023-02-15T04:53:45;15.30;;;9.30;;
4450;SDS011;2238;50.180;9.230;2023-02-15T04:56:46;13.43;;;9.07;;
4450;SDS011;2238;50.180;9.230;2023-02-15T04:59:47;18.23;;;9.53;;
4450;SDS011;2238;50.180;9.230;2023-02-15T05:02:48;18.50;;;11.27;;
4450;SDS011;2238;50.180;9.230;2023-02-15T05:05:49;18.57;;;10.00;;
4450;SDS011;2238;50.180;9.230;2023-02-15T05:08:50;16.60;;;10.50;;
4450;SDS011;2238;50.180;9.230;2023-02-15T05:11:51;14.30;;;9.87;;
4450;SDS011;2238;50.180;9.230;2023-02-15T05:14:52;18.27;;;10.13;;
4450;SDS011;2238;50.180;9.230;2023-02-15T05:17:53;19.70;;;9.97;;
4450;SDS011;2238;50.180;9.230;2023-02-15T05:20:54;19.47;;;10.37;;
4450;SDS011;2238;50.180;9.230;2023-02-15T05:23:55;17.73;;;10.00;;
4450;SDS011;2238;50.180;9.230;2023-02-15T05:26:56;18.40;;;11.23;;
4450;SDS011;2238;50.180;9.230;2023-02-15T05:30:16;16.33;;;11.23;;
4450;SDS011;2238;50.180;9.230;2023-02-15T05:33:17;16.67;;;9.50;;
4450;SDS011;2238;50.180;9.230;2023-02-15T05:36:18;16.97;;;10.17;;
4450;SDS011;2238;50.180;9.230;2023-02-15T05:39:19;22.57;;;11.50;;
4450;SDS011;2238;50.180;9.230;2023-02-15T05:42:20;16.27;;;10.00;;
4450;SDS011;2238;50.180;9.230;2023-02-15T05:45:21;16.47;;;9.40;;
4450;SDS011;2238;50.180;9.230;2023-02-15T05:48:23;14.60;;;9.90;;
4450;SDS011;2238;50.180;9.230;2023-02-15T05:51:25;22.33;;;13.20;;
4450;SDS011;2238;50.180;9.230;2023-02-15T05:54:26;18.87;;;11.80;;
4450;SDS011;2238;50.180;9.230;2023-02-15T05:57:26;23.80;;;13.90;;
4450;SDS011;2238;50.180;9.230;2023-02-15T06:00:27;17.50;;;11.37;;
4450;SDS011;2238;50.180;9.230;2023-02-15T06:03:28;16.33;;;10.50;;
4450;SDS011;2238;50.180;9.230;2023-02-15T06:06:29;17.60;;;12.07;;
4450;SDS011;2238;50.180;9.230;2023-02-15T06:09:30;17.00;;;10.90;;
4450;SDS011;2238;50.180;9.230;2023-02-15T06:12:31;17.90;;;11.20;;
4450;SDS011;2238;50.180;9.230;2023-02-15T06:15:32;18.37;;;10.10;;
4450;SDS011;2238;50.180;9.230;2023-02-15T06:18:32;15.97;;;10.30;;
4450;SDS011;2238;50.180;9.230;2023-02-15T06:21:33;16.00;;;11.10;;
4450;SDS011;2238;50.180;9.230;2023-02-15T06:24:34;20.30;;;11.43;;
4450;SDS011;2238;50.180;9.230;2023-02-15T06:27:35;19.43;;;11.10;;
4450;SDS011;2238;50.180;9.230;2023-02-15T06:30:37;18.90;;;11.07;;
4450;SDS011;2238;50.180;9.230;2023-02-15T06:33:37;20.63;;;11.60;;
4450;SDS011;2238;50.180;9.230;2023-02-15T06:36:38;24.37;;;12.73;;
4450;SDS011;2238;50.180;9.230;2023-02-15T06:39:39;18.13;;;10.17;;
4450;SDS011;2238;50.180;9.230;2023-02-15T06:42:41;22.63;;;11.70;;
4450;SDS011;2238;50.180;9.230;2023-02-15T06:45:42;21.73;;;12.17;;
4450;SDS011;2238;50.180;9.230;2023-02-15T06:48:43;18.73;;;11.50;;
4450;SDS011;2238;50.180;9.230;2023-02-15T06:51:44;20.90;;;12.23;;
4450;SDS011;2238;50.180;9.230;2023-02-15T06:54:45;26.63;;;12.77;;
4450;SDS011;2238;50.180;9.230;2023-02-15T06:57:46;23.80;;;12.43;;
4450;SDS011;2238;50.180;9.230;2023-02-15T07:00:47;22.87;;;12.47;;
4450;SDS011;2238;50.180;9.230;2023-02-15T07:03:49;20.40;;;12.67;;
4450;SDS011;2238;50.180;9.230;2023-02-15T07:06:50;21.30;;;11.07;;
4450;SDS011;2238;50.180;9.230;2023-02-15T07:09:51;23.17;;;14.57;;
4450;SDS011;2238;50.180;9.230;2023-02-15T07:12:52;24.93;;;15.40;;
4450;SDS011;2238;50.180;9.230;2023-02-15T07:15:53;19.23;;;12.43;;
4450;SDS011;2238;50.180;9.230;2023-02-15T07:18:54;23.07;;;13.10;;
4450;SDS011;2238;50.180;9.230;2023-02-15T07:21:55;22.03;;;12.13;;
4450;SDS011;2238;50.180;9.230;2023-02-15T07:24:56;19.00;;;10.07;;
4450;SDS011;2238;50.180;9.230;2023-02-15T07:27:57;22.33;;;12.90;;
4450;SDS011;2238;50.180;9.230;2023-02-15T07:31:00;19.90;;;12.23;;
4450;SDS011;2238;50.180;9.230;2023-02-15T07:34:02;16.73;;;9.43;;
4450;SDS011;2238;50.180;9.230;2023-02-15T07:37:03;17.07;;;10.97;;
4450;SDS011;2238;50.180;9.230;2023-02-15T07:40:04;21.57;;;11.60;;
4450;SDS011;2238;50.180;9.230;2023-02-15T07:43:05;21.10;;;11.73;;
4450;SDS011;2238;50.180;9.230;2023-02-15T07:46:07;22.23;;;12.73;;
4450;SDS011;2238;50.180;9.230;2023-02-15T07:49:11;20.63;;;11.67;;
4450;SDS011;2238;50.180;9.230;2023-02-15T07:52:12;22.40;;;11.37;;
4450;SDS011;2238;50.180;9.230;2023-02-15T07:55:13;22.70;;;14.53;;
4450;SDS011;2238;50.180;9.230;2023-02-15T07:58:14;18.67;;;11.13;;
4450;SDS011;2238;50.180;9.230;2023-02-15T08:01:15;16.43;;;10.80;;
4450;SDS011;2238;50.180;9.230;2023-02-15T08:04:16;21.20;;;11.87;;
4450;SDS011;2238;50.180;9.230;2023-02-15T08:07:18;23.43;;;12.90;;
4450;SDS011;2238;50.180;9.230;2023-02-15T08:10:19;22.17;;;12.40;;
4450;SDS011;2238;50.180;9.230;2023-02-15T08:13:41;23.57;;;11.33;;
4450;SDS011;2238;50.180;9.230;2023-02-15T08:16:54;24.23;;;13.70;;
4450;SDS011;2238;50.180;9.230;2023-02-15T08:19:56;25.33;;;13.80;;
4450;SDS011;2238;50.180;9.230;2023-02-15T08:22:57;22.97;;;13.77;;
4450;SDS011;2238;50.180;9.230;2023-02-15T08:25:59;22.30;;;13.33;;
4450;SDS011;2238;50.180;9.230;2023-02-15T08:29:00;31.40;;;15.40;;
4450;SDS011;2238;50.180;9.230;2023-02-15T08:32:03;27.70;;;14.30;;
4450;SDS011;2238;50.180;9.230;2023-02-15T08:35:09;25.47;;;15.30;;
4450;SDS011;2238;50.180;9.230;2023-02-15T08:38:09;24.47;;;14.03;;
4450;SDS011;2238;50.180;9.230;2023-02-15T08:44:12;25.60;;;14.17;;
4450;SDS011;2238;50.180;9.230;2023-02-15T08:47:13;25.40;;;13.33;;
4450;SDS011;2238;50.180;9.230;2023-02-15T08:50:14;20.70;;;12.77;;
4450;SDS011;2238;50.180;9.230;2023-02-15T08:53:15;21.27;;;13.50;;
4450;SDS011;2238;50.180;9.230;2023-02-15T08:56:24;22.97;;;13.00;;
4450;SDS011;2238;50.180;9.230;2023-02-15T08:59:30;18.00;;;11.93;;
4450;SDS011;2238;50.180;9.230;2023-02-15T09:02:30;24.17;;;13.90;;
4450;SDS011;2238;50.180;9.230;2023-02-15T09:05:31;22.90;;;12.67;;
4450;SDS011;2238;50.180;9.230;2023-02-15T09:08:32;22.03;;;12.03;;
4450;SDS011;2238;50.180;9.230;2023-02-15T09:11:35;22.13;;;14.20;;
4450;SDS011;2238;50.180;9.230;2023-02-15T09:14:37;28.37;;;12.67;;
4450;SDS011;2238;50.180;9.230;2023-02-15T09:17:38;21.07;;;12.77;;
4450;SDS011;2238;50.180;9.230;2023-02-15T09:20:39;22.57;;;13.23;;
4450;SDS011;2238;50.180;9.230;2023-02-15T09:23:41;25.43;;;14.03;;
4450;SDS011;2238;50.180;9.230;2023-02-15T09:26:43;21.70;;;12.17;;
4450;SDS011;2238;50.180;9.230;2023-02-15T09:29:45;18.13;;;11.13;;
4450;SDS011;2238;50.180;9.230;2023-02-15T09:32:47;19.90;;;12.73;;
4450;SDS011;2238;50.180;9.230;2023-02-15T09:35:47;21.40;;;12.60;;
4450;SDS011;2238;50.180;9.230;2023-02-15T09:38:54;20.63;;;10.87;;
4450;SDS011;2238;50.180;9.230;2023-02-15T09:46:02;22.33;;;13.37;;
4450;SDS011;2238;50.180;9.230;2023-02-15T09:56:14;21.73;;;12.40;;
4450;SDS011;2238;50.180;9.230;2023-02-15T09:59:27;22.77;;;14.50;;
4450;SDS011;2238;50.180;9.230;2023-02-15T10:02:38;22.70;;;12.80;;
4450;SDS011;2238;50.180;9.230;2023-02-15T10:09:57;24.70;;;14.37;;
4450;SDS011;2238;50.180;9.230;2023-02-15T10:16:30;21.37;;;14.67;;
4450;SDS011;2238;50.180;9.230;2023-02-15T10:26:01;24.10;;;13.67;;
4450;SDS011;2238;50.180;9.230;2023-02-15T10:32:24;24.50;;;15.50;;
4450;SDS011;2238;50.180;9.230;2023-02-15T10:35:29;25.97;;;14.13;;
4450;SDS011;2238;50.180;9.230;2023-02-15T10:41:46;25.50;;;15.20;;
4450;SDS011;2238;50.180;9.230;2023-02-15T10:44:55;25.53;;;14.87;;
4450;SDS011;2238;50.180;9.230;2023-02-15T10:48:09;26.93;;;14.47;;
4450;SDS011;2238;50.180;9.230;2023-02-15T10:51:15;21.93;;;14.70;;
4450;SDS011;2238;50.180;9.230;2023-02-15T10:57:45;21.73;;;15.00;;
4450;SDS011;2238;50.180;9.230;2023-02-15T11:01:01;24.70;;;14.17;;
4450;SDS011;2238;50.180;9.230;2023-02-15T11:07:21;23.90;;;14.17;;
4450;SDS011;2238;50.180;9.230;2023-02-15T11:10:48;25.83;;;14.47;;
4450;SDS011;2238;50.180;9.230;2023-02-15T11:14:03;21.27;;;12.80;;
4450;SDS011;2238;50.180;9.230;2023-02-15T11:17:11;23.37;;;15.00;;
4450;SDS011;2238;50.180;9.230;2023-02-15T11:23:25;27.40;;;16.50;;
4450;SDS011;2238;50.180;9.230;2023-02-15T11:26:34;27.83;;;15.10;;
4450;SDS011;2238;50.180;9.230;2023-02-15T11:29:38;23.40;;;14.80;;
4450;SDS011;2238;50.180;9.230;2023-02-15T11:32:44;24.70;;;16.00;;
4450;SDS011;2238;50.180;9.230;2023-02-15T11:35:50;25.13;;;15.07;;
4450;SDS011;2238;50.180;9.230;2023-02-15T11:38:58;20.03;;;13.33;;
4450;SDS011;2238;50.180;9.230;2023-02-15T11:42:04;25.77;;;15.23;;
4450;SDS011;2238;50.180;9.230;2023-02-15T11:45:16;25.90;;;16.17;;
4450;SDS011;2238;50.180;9.230;2023-02-15T11:48:18;29.30;;;16.90;;
4450;SDS011;2238;50.180;9.230;2023-02-15T11:51:20;27.60;;;18.70;;
4450;SDS011;2238;50.180;9.230;2023-02-15T11:54:32;23.30;;;15.50;;
4450;SDS011;2238;50.180;9.230;2023-02-15T11:57:39;22.27;;;15.23;;
4450;SDS011;2238;50.180;9.230;2023-02-15T12:00:44;29.63;;;15.80;;
4450;SDS011;2238;50.180;9.230;2023-02-15T12:04:10;23.83;;;14.43;;
4450;SDS011;2238;50.180;9.230;2023-02-15T12:10:23;23.83;;;15.23;;
4450;SDS011;2238;50.180;9.230;2023-02-15T12:13:24;25.70;;;15.00;;
4450;SDS011;2238;50.180;9.230;2023-02-15T12:16:25;22.57;;;14.63;;
4450;SDS011;2238;50.180;9.230;2023-02-15T12:19:38;24.90;;;16.73;;
4450;SDS011;2238;50.180;9.230;2023-02-15T12:22:45;25.60;;;15.80;;
4450;SDS011;2238;50.180;9.230;2023-02-15T12:25:53;24.90;;;15.17;;
4450;SDS011;2238;50.180;9.230;2023-02-15T12:28:57;39.87;;;24.90;;
4450;SDS011;2238;50.180;9.230;2023-02-15T12:32:01;27.20;;;17.13;;
4450;SDS011;2238;50.180;9.230;2023-02-15T12:35:08;23.70;;;15.63;;
4450;SDS011;2238;50.180;9.230;2023-02-15T12:44:33;20.77;;;14.40;;
4450;SDS011;2238;50.180;9.230;2023-02-15T12:47:35;21.13;;;15.10;;
4450;SDS011;2238;50.180;9.230;2023-02-15T12:50:36;23.30;;;15.43;;
4450;SDS011;2238;50.180;9.230;2023-02-15T12:53:37;24.47;;;14.80;;
4450;SDS011;2238;50.180;9.230;2023-02-15T12:56:38;19.70;;;13.97;;
4450;SDS011;2238;50.180;9.230;2023-02-15T13:00:39;23.60;;;14.57;;
4450;SDS011;2238;50.180;9.230;2023-02-15T13:03:23;19.83;;;14.57;;
4450;SDS011;2238;50.180;9.230;2023-02-15T13:06:25;19.10;;;13.47;;
4450;SDS011;2238;50.180;9.230;2023-02-15T13:12:31;21.93;;;15.00;;
4450;SDS011;2238;50.180;9.230;2023-02-15T13:15:41;19.23;;;13.50;;
4450;SDS011;2238;50.180;9.230;2023-02-15T13:18:47;21.70;;;14.10;;
4450;SDS011;2238;50.180;9.230;2023-02-15T13:21:51;21.30;;;15.13;;
4450;SDS011;2238;50.180;9.230;2023-02-15T13:24:55;30.40;;;18.67;;
4450;SDS011;2238;50.180;9.230;2023-02-15T13:28:00;17.03;;;13.07;;
4450;SDS011;2238;50.180;9.230;2023-02-15T13:31:02;18.10;;;13.27;;
4450;SDS011;2238;50.180;9.230;2023-02-15T13:34:06;35.67;;;21.13;;
4450;SDS011;2238;50.180;9.230;2023-02-15T13:40:41;19.17;;;13.33;;
4450;SDS011;2238;50.180;9.230;2023-02-15T13:44:09;16.43;;;12.03;;
4450;SDS011;2238;50.180;9.230;2023-02-15T13:47:36;20.20;;;13.97;;
4450;SDS011;2238;50.180;9.230;2023-02-15T13:57:52;16.53;;;11.63;;
4450;SDS011;2238;50.180;9.230;2023-02-15T14:08:41;16.43;;;12.57;;
4450;SDS011;2238;50.180;9.230;2023-02-15T14:21:18;17.40;;;13.20;;
4450;SDS011;2238;50.180;9.230;2023-02-15T14:24:39;16.53;;;12.00;;
4450;SDS011;2238;50.180;9.230;2023-02-15T14:28:05;18.10;;;13.73;;
4450;SDS011;2238;50.180;9.230;2023-02-15T14:31:14;18.17;;;12.50;;
4450;SDS011;2238;50.180;9.230;2023-02-15T14:34:22;18.50;;;12.90;;
4450;SDS011;2238;50.180;9.230;2023-02-15T14:41:04;15.87;;;12.23;;
4450;SDS011;2238;50.180;9.230;2023-02-15T14:44:21;15.63;;;12.07;;
4450;SDS011;2238;50.180;9.230;2023-02-15T14:47:31;14.43;;;11.70;;
4450;SDS011;2238;50.180;9.230;2023-02-15T14:50:44;16.60;;;12.60;;
4450;SDS011;2238;50.180;9.230;2023-02-15T14:53:47;19.57;;;13.27;;
4450;SDS011;2238;50.180;9.230;2023-02-15T15:00:00;15.87;;;13.07;;
4450;SDS011;2238;50.180;9.230;2023-02-15T15:03:20;20.10;;;15.20;;
4450;SDS011;2238;50.180;9.230;2023-02-15T15:06:42;17.20;;;13.00;;
4450;SDS011;2238;50.180;9.230;2023-02-15T15:09:44;16.37;;;12.30;;
4450;SDS011;2238;50.180;9.230;2023-02-15T15:15:49;17.63;;;13.03;;
4450;SDS011;2238;50.180;9.230;2023-02-15T15:18:53;19.43;;;13.23;;
4450;SDS011;2238;50.180;9.230;2023-02-15T15:21:54;15.90;;;12.13;;
4450;SDS011;2238;50.180;9.230;2023-02-15T15:24:57;16.83;;;12.77;;
4450;SDS011;2238;50.180;9.230;2023-02-15T15:27:59;19.23;;;13.30;;
4450;SDS011;2238;50.180;9.230;2023-02-15T15:45:16;17.77;;;13.17;;
4450;SDS011;2238;50.180;9.230;2023-02-15T15:48:24;21.97;;;14.50;;
4450;SDS011;2238;50.180;9.230;2023-02-15T15:51:30;26.20;;;18.93;;
4450;SDS011;2238;50.180;9.230;2023-02-15T15:54:33;25.63;;;19.97;;
4450;SDS011;2238;50.180;9.230;2023-02-15T15:57:34;19.90;;;13.80;;
4450;SDS011;2238;50.180;9.230;2023-02-15T16:00:43;20.23;;;14.77;;
4450;SDS011;2238;50.180;9.230;2023-02-15T16:03:49;21.30;;;15.53;;
4450;SDS011;2238;50.180;9.230;2023-02-15T16:06:51;23.77;;;17.60;;
4450;SDS011;2238;50.180;9.230;2023-02-15T16:09:59;18.00;;;13.20;;
4450;SDS011;2238;50.180;9.230;2023-02-15T16:13:04;18.33;;;12.73;;
4450;SDS011;2238;50.180;9.230;2023-02-15T16:16:06;22.30;;;15.00;;
4450;SDS011;2238;50.180;9.230;2023-02-15T16:19:14;21.00;;;13.23;;
4450;SDS011;2238;50.180;9.230;2023-02-15T16:22:19;20.60;;;15.20;;
4450;SDS011;2238;50.180;9.230;2023-02-15T16:28:30;22.37;;;13.70;;
4450;SDS011;2238;50.180;9.230;2023-02-15T16:31:30;23.83;;;15.20;;
4450;SDS011;2238;50.180;9.230;2023-02-15T16:34:31;42.10;;;24.37;;
4450;SDS011;2238;50.180;9.230;2023-02-15T16:37:33;23.73;;;13.50;;
4450;SDS011;2238;50.180;9.230;2023-02-15T16:43:35;21.57;;;14.70;;
4450;SDS011;2238;50.180;9.230;2023-02-15T16:46:42;19.13;;;14.37;;
4450;SDS011;2238;50.180;9.230;2023-02-15T16:49:46;21.53;;;14.23;;
4450;SDS011;2238;50.180;9.230;2023-02-15T16:52:48;29.17;;;18.73;;
4450;SDS011;2238;50.180;9.230;2023-02-15T16:55:53;25.60;;;15.53;;
4450;SDS011;2238;50.180;9.230;2023-02-15T16:58:56;35.70;;;23.60;;
4450;SDS011;2238;50.180;9.230;2023-02-15T17:01:58;35.03;;;21.17;;
4450;SDS011;2238;50.180;9.230;2023-02-15T17:05:20;26.70;;;18.13;;
4450;SDS011;2238;50.180;9.230;2023-02-15T17:08:34;28.60;;;21.50;;
4450;SDS011;2238;50.180;9.230;2023-02-15T17:11:42;22.97;;;16.53;;
4450;SDS011;2238;50.180;9.230;2023-02-15T17:14:43;25.13;;;17.90;;
4450;SDS011;2238;50.180;9.230;2023-02-15T17:17:44;29.07;;;20.87;;
4450;SDS011;2238;50.180;9.230;2023-02-15T17:20:46;21.00;;;15.80;;
4450;SDS011;2238;50.180;9.230;2023-02-15T17:23:50;22.60;;;16.50;;
4450;SDS011;2238;50.180;9.230;2023-02-15T17:26:57;26.30;;;19.07;;
4450;SDS011;2238;50.180;9.230;2023-02-15T17:30:03;19.33;;;15.63;;
4450;SDS011;2238;50.180;9.230;2023-02-15T17:36:20;26.50;;;18.07;;
4450;SDS011;2238;50.180;9.230;2023-02-15T17:39:23;22.17;;;17.17;;
4450;SDS011;2238;50.180;9.230;2023-02-15T17:42:23;19.33;;;14.53;;
4450;SDS011;2238;50.180;9.230;2023-02-15T17:45:27;17.58;;;14.20;;
4450;SDS011;2238;50.180;9.230;2023-02-15T17:48:35;20.50;;;14.90;;
4450;SDS011;2238;50.180;9.230;2023-02-15T17:51:38;23.00;;;15.77;;
4450;SDS011;2238;50.180;9.230;2023-02-15T17:54:39;20.40;;;14.97;;
4450;SDS011;2238;50.180;9.230;2023-02-15T17:57:58;33.57;;;21.10;;
4450;SDS011;2238;50.180;9.230;2023-02-15T18:00:59;30.30;;;20.47;;
4450;SDS011;2238;50.180;9.230;2023-02-15T18:04:24;31.63;;;21.53;;
4450;SDS011;2238;50.180;9.230;2023-02-15T18:07:43;32.37;;;21.00;;
4450;SDS011;2238;50.180;9.230;2023-02-15T18:11:02;29.07;;;20.07;;
4450;SDS011;2238;50.180;9.230;2023-02-15T18:14:21;34.97;;;22.93;;
4450;SDS011;2238;50.180;9.230;2023-02-15T18:17:31;32.30;;;21.20;;
4450;SDS011;2238;50.180;9.230;2023-02-15T18:20:43;30.20;;;20.13;;
4450;SDS011;2238;50.180;9.230;2023-02-15T18:23:43;30.57;;;21.03;;
4450;SDS011;2238;50.180;9.230;2023-02-15T18:26:44;24.67;;;18.13;;
4450;SDS011;2238;50.180;9.230;2023-02-15T18:29:45;26.33;;;18.70;;
4450;SDS011;2238;50.180;9.230;2023-02-15T18:32:48;32.17;;;20.93;;
4450;SDS011;2238;50.180;9.230;2023-02-15T18:35:51;26.70;;;18.83;;
4450;SDS011;2238;50.180;9.230;2023-02-15T18:38:52;23.47;;;17.90;;
4450;SDS011;2238;50.180;9.230;2023-02-15T18:41:53;29.50;;;18.43;;
4450;SDS011;2238;50.180;9.230;2023-02-15T18:44:54;25.03;;;17.90;;
4450;SDS011;2238;50.180;9.230;2023-02-15T18:47:56;31.23;;;18.60;;
4450;SDS011;2238;50.180;9.230;2023-02-15T18:50:57;29.03;;;18.53;;
4450;SDS011;2238;50.180;9.230;2023-02-15T18:53:58;22.70;;;17.03;;
4450;SDS011;2238;50.180;9.230;2023-02-15T18:56:59;24.50;;;17.93;;
4450;SDS011;2238;50.180;9.230;2023-02-15T19:00:00;24.20;;;16.40;;
4450;SDS011;2238;50.180;9.230;2023-02-15T19:03:01;26.63;;;18.77;;
4450;SDS011;2238;50.180;9.230;2023-02-15T19:06:02;24.43;;;16.80;;
4450;SDS011;2238;50.180;9.230;2023-02-15T19:09:07;31.13;;;18.80;;
4450;SDS011;2238;50.180;9.230;2023-02-15T19:12:12;36.80;;;21.90;;
4450;SDS011;2238;50.180;9.230;2023-02-15T19:15:24;29.27;;;19.33;;
4450;SDS011;2238;50.180;9.230;2023-02-15T19:18:26;30.03;;;19.47;;
4450;SDS011;2238;50.180;9.230;2023-02-15T19:21:27;30.70;;;19.77;;
4450;SDS011;2238;50.180;9.230;2023-02-15T19:24:32;37.60;;;22.30;;
4450;SDS011;2238;50.180;9.230;2023-02-15T19:27:38;38.30;;;21.30;;
4450;SDS011;2238;50.180;9.230;2023-02-15T19:30:38;35.40;;;21.53;;
4450;SDS011;2238;50.180;9.230;2023-02-15T19:33:39;29.47;;;18.17;;
4450;SDS011;2238;50.180;9.230;2023-02-15T19:36:40;29.60;;;19.23;;
4450;SDS011;2238;50.180;9.230;2023-02-15T19:39:41;26.67;;;16.03;;
4450;SDS011;2238;50.180;9.230;2023-02-15T19:42:42;25.00;;;17.13;;
4450;SDS011;2238;50.180;9.230;2023-02-15T19:45:43;29.10;;;17.90;;
4450;SDS011;2238;50.180;9.230;2023-02-15T19:48:44;28.20;;;16.93;;
4450;SDS011;2238;50.180;9.230;2023-02-15T19:51:45;29.87;;;18.97;;
4450;SDS011;2238;50.180;9.230;2023-02-15T19:54:46;30.20;;;19.03;;
4450;SDS011;2238;50.180;9.230;2023-02-15T19:57:48;27.80;;;17.43;;
4450;SDS011;2238;50.180;9.230;2023-02-15T20:00:51;33.43;;;20.37;;
4450;SDS011;2238;50.180;9.230;2023-02-15T20:03:51;32.50;;;20.30;;
4450;SDS011;2238;50.180;9.230;2023-02-15T20:06:53;35.03;;;18.70;;
4450;SDS011;2238;50.180;9.230;2023-02-15T20:09:56;31.73;;;17.50;;
4450;SDS011;2238;50.180;9.230;2023-02-15T20:12:57;31.90;;;20.30;;
4450;SDS011;2238;50.180;9.230;2023-02-15T20:15:58;28.20;;;17.27;;
4450;SDS011;2238;50.180;9.230;2023-02-15T20:19:00;30.80;;;18.50;;
4450;SDS011;2238;50.180;9.230;2023-02-15T20:22:00;32.50;;;18.20;;
4450;SDS011;2238;50.180;9.230;2023-02-15T20:25:01;24.93;;;17.17;;
4450;SDS011;2238;50.180;9.230;2023-02-15T20:28:02;30.90;;;17.73;;
4450;SDS011;2238;50.180;9.230;2023-02-15T20:31:03;30.37;;;21.30;;
4450;SDS011;2238;50.180;9.230;2023-02-15T20:34:03;33.03;;;20.00;;
4450;SDS011;2238;50.180;9.230;2023-02-15T20:37:04;29.80;;;19.83;;
4450;SDS011;2238;50.180;9.230;2023-02-15T20:40:23;26.90;;;17.60;;
4450;SDS011;2238;50.180;9.230;2023-02-15T20:43:25;31.37;;;17.97;;
4450;SDS011;2238;50.180;9.230;2023-02-15T20:46:26;31.63;;;20.20;;
4450;SDS011;2238;50.180;9.230;2023-02-15T20:49:27;32.60;;;19.17;;
4450;SDS011;2238;50.180;9.230;2023-02-15T20:52:27;30.27;;;18.93;;
4450;SDS011;2238;50.180;9.230;2023-02-15T20:55:29;30.43;;;20.10;;
4450;SDS011;2238;50.180;9.230;2023-02-15T20:58:30;31.17;;;20.90;;
4450;SDS011;2238;50.180;9.230;2023-02-15T21:01:31;29.07;;;19.83;;
4450;SDS011;2238;50.180;9.230;2023-02-15T21:04:32;31.03;;;18.90;;
4450;SDS011;2238;50.180;9.230;2023-02-15T21:07:32;27.40;;;18.30;;